Time;durP1;ratioP1;P1;durP2;ratioP2;P2;SDS_P1;SDS_P2;PMS_P1;PMS_P2;Temp;Humidity;BMP_temperature;BMP_pressure;BME280_temperature;BME280_humidity;BME280_pressure;Samples;Min_cycle;Max_cycle;Signal;HPM_P1;HPM_P2
2022/02/23 00:02:17;;;;;;;26.40;4.85;;;;;;;3.76;100.00;102088.59;5070826;28;20074;-70
2022/02/23 00:04:43;;;;;;;26.20;4.90;;;;;;;3.71;100.00;102091.78;5071062;28;20024;-70
2022/02/23 00:07:08;;;;;;;27.40;5.00;;;;;;;3.63;100.00;102094.00;5071101;28;20471;-72
2022/02/23 00:09:33;;;;;;;25.13;4.95;;;;;;;3.57;100.00;102101.50;5071320;28;20042;-70
2022/02/23 00:11:58;;;;;;;25.48;5.28;;;;;;;3.52;100.00;102089.91;5071077;28;20417;-71
2022/02/23 00:14:24;;;;;;;27.38;5.13;;;;;;;3.47;100.00;102101.03;5070565;28;20459;-70
2022/02/23 00:16:49;;;;;;;26.60;4.97;;;;;;;3.43;100.00;102106.03;5070794;28;20073;-70
2022/02/23 00:19:14;;;;;;;24.73;5.13;;;;;;;3.38;100.00;102107.47;5070742;28;20028;-70
2022/02/23 00:21:40;;;;;;;25.30;5.00;;;;;;;3.33;100.00;102109.84;5070237;28;20123;-71
2022/02/23 00:24:05;;;;;;;26.15;4.90;;;;;;;3.24;100.00;102109.34;5071137;28;20116;-70
2022/02/23 00:26:34;;;;;;;22.17;4.45;;;;;;;3.21;100.00;102115.31;5069613;28;20024;-70
2022/02/23 00:28:59;;;;;;;25.90;5.35;;;;;;;3.23;100.00;102112.78;5070411;28;20028;-70
2022/02/23 00:31:25;;;;;;;29.95;5.20;;;;;;;3.18;100.00;102117.75;5070412;28;20494;-71
2022/02/23 00:33:51;;;;;;;29.20;5.25;;;;;;;3.13;100.00;102121.81;5070744;28;20154;-71
2022/02/23 00:36:16;;;;;;;28.27;5.30;;;;;;;3.16;100.00;102126.31;5070607;28;20064;-70
2022/02/23 00:38:41;;;;;;;24.25;4.90;;;;;;;3.14;100.00;102119.28;5070508;28;20078;-71
2022/02/23 00:41:07;;;;;;;25.67;5.40;;;;;;;3.06;100.00;102125.81;5070176;28;20535;-71
2022/02/23 00:43:32;;;;;;;25.38;5.65;;;;;;;2.95;100.00;102130.44;5070263;28;20032;-71
2022/02/23 00:45:57;;;;;;;26.17;5.03;;;;;;;2.88;100.00;102130.00;5068430;28;20174;-71
2022/02/23 00:48:23;;;;;;;25.55;5.30;;;;;;;2.84;100.00;102141.09;5070468;28;20020;-71
2022/02/23 00:50:48;;;;;;;26.23;5.35;;;;;;;2.84;100.00;102141.09;5070933;28;20111;-72
2022/02/23 00:53:14;;;;;;;25.45;4.82;;;;;;;2.84;100.00;102135.88;5069785;28;20112;-70
2022/02/23 00:55:39;;;;;;;28.50;5.40;;;;;;;2.84;100.00;102139.41;5070220;28;20028;-71
2022/02/23 00:58:04;;;;;;;26.17;5.30;;;;;;;2.82;100.00;102140.13;5070675;28;20021;-71
2022/02/23 01:00:30;;;;;;;25.17;5.38;;;;;;;2.85;100.00;102146.41;5070395;28;20107;-71
2022/02/23 01:02:55;;;;;;;24.40;5.47;;;;;;;2.83;100.00;102147.16;5068220;28;20475;-72
2022/02/23 01:05:21;;;;;;;24.05;5.20;;;;;;;2.82;100.00;102151.47;5070166;28;20021;-71
2022/02/23 01:07:46;;;;;;;26.83;5.32;;;;;;;2.78;100.00;102153.00;5070041;28;20056;-71
2022/02/23 01:10:12;;;;;;;27.25;5.75;;;;;;;2.78;100.00;102145.19;5070463;28;20044;-71
2022/02/23 01:12:37;;;;;;;27.50;5.38;;;;;;;2.77;100.00;102158.16;5069736;28;20025;-71
2022/02/23 01:15:04;;;;;;;25.50;5.28;;;;;;;2.74;100.00;102157.97;5070675;28;20032;-71
2022/02/23 01:17:30;;;;;;;26.95;5.30;;;;;;;2.73;100.00;102156.19;5070453;28;20103;-71
2022/02/23 01:19:55;;;;;;;28.67;5.43;;;;;;;2.65;100.00;102149.59;5069785;28;20157;-71
2022/02/23 01:22:20;;;;;;;26.75;5.40;;;;;;;2.69;100.00;102169.88;5069449;28;20039;-71
2022/02/23 01:24:46;;;;;;;26.40;5.60;;;;;;;2.65;100.00;102167.88;5070267;28;20064;-71
2022/02/23 01:27:11;;;;;;;26.85;5.70;;;;;;;2.65;100.00;102163.56;5069991;28;20060;-71
2022/02/23 01:29:36;;;;;;;25.98;5.80;;;;;;;2.65;100.00;102174.03;5070119;28;20013;-71
2022/02/23 01:32:02;;;;;;;27.92;5.40;;;;;;;2.63;100.00;102174.75;5069822;28;20024;-71
2022/02/23 01:34:28;;;;;;;27.55;5.80;;;;;;;2.64;100.00;102177.44;5069718;28;20029;-71
2022/02/23 01:36:53;;;;;;;29.67;5.93;;;;;;;2.66;100.00;102181.03;5069723;28;20020;-71
2022/02/23 01:39:18;;;;;;;27.77;5.97;;;;;;;2.69;100.00;102181.19;5070000;28;20463;-71
2022/02/23 01:41:44;;;;;;;26.52;5.78;;;;;;;2.71;100.00;102179.59;5069599;28;20056;-71
2022/02/23 01:44:09;;;;;;;28.20;5.63;;;;;;;2.69;100.00;102175.97;5070083;28;20467;-71
2022/02/23 01:46:35;;;;;;;27.20;5.55;;;;;;;2.63;100.00;102172.13;5069833;28;20407;-70
2022/02/23 01:49:00;;;;;;;27.60;5.82;;;;;;;2.66;100.00;102181.03;5069648;28;20025;-71
2022/02/23 01:51:25;;;;;;;25.52;5.95;;;;;;;2.57;100.00;102189.22;5069794;28;20398;-71
2022/02/23 01:53:51;;;;;;;28.02;6.38;;;;;;;2.53;100.00;102189.84;5070040;28;20102;-71
2022/02/23 01:56:16;;;;;;;26.42;5.72;;;;;;;2.52;100.00;102192.38;5069975;28;20460;-71
2022/02/23 01:58:41;;;;;;;27.77;5.80;;;;;;;2.48;100.00;102190.41;5073044;28;20504;-71
2022/02/23 02:01:07;;;;;;;30.40;6.53;;;;;;;2.45;100.00;102188.53;5073255;28;20453;-71
2022/02/23 02:03:32;;;;;;;30.63;6.00;;;;;;;2.42;100.00;102181.41;5073124;28;20449;-71
2022/02/23 02:05:57;;;;;;;29.90;6.45;;;;;;;2.42;100.00;102181.41;5073345;28;20107;-71
2022/02/23 02:08:23;;;;;;;28.02;5.68;;;;;;;2.37;100.00;102188.03;5072805;28;20032;-71
2022/02/23 02:10:48;;;;;;;29.00;6.07;;;;;;;2.36;100.00;102198.41;5073520;28;20490;-71
2022/02/23 02:13:14;;;;;;;27.73;6.18;;;;;;;2.35;100.00;102194.91;5072834;28;20497;-71
2022/02/23 02:15:39;;;;;;;28.95;6.05;;;;;;;2.37;100.00;102202.81;5073252;28;20639;-71
2022/02/23 02:18:05;;;;;;;27.50;5.90;;;;;;;2.37;100.00;102202.81;5073257;28;20031;-71
2022/02/23 02:20:31;;;;;;;29.55;6.10;;;;;;;2.31;100.00;102208.56;5073218;28;20426;-71
2022/02/23 02:22:56;;;;;;;29.95;6.00;;;;;;;2.26;100.00;102213.50;5072279;28;20066;-71
2022/02/23 02:25:21;;;;;;;24.83;5.70;;;;;;;2.25;100.00;102218.66;5073086;28;20061;-71
2022/02/23 02:27:47;;;;;;;29.00;6.28;;;;;;;2.20;100.00;102225.28;5072749;28;20028;-71
2022/02/23 02:30:12;;;;;;;29.33;6.20;;;;;;;2.16;100.00;102229.44;5072876;28;20031;-71
2022/02/23 02:32:37;;;;;;;30.08;6.25;;;;;;;2.14;100.00;102225.84;5072602;28;20024;-72
2022/02/23 02:35:03;;;;;;;28.25;5.85;;;;;;;2.12;100.00;102224.81;5072735;28;20035;-71
2022/02/23 02:37:29;;;;;;;26.75;5.88;;;;;;;2.09;100.00;102228.16;5072398;28;20060;-71
2022/02/23 02:39:54;;;;;;;26.02;5.68;;;;;;;2.09;100.00;102229.88;5072608;28;20347;-72
2022/02/23 02:42:19;;;;;;;27.40;6.00;;;;;;;2.08;100.00;102231.59;5072227;28;20064;-71
2022/02/23 02:44:45;;;;;;;29.50;6.00;;;;;;;2.03;100.00;102238.22;5072226;28;20050;-71
2022/02/23 02:47:11;;;;;;;27.98;6.20;;;;;;;1.97;100.00;102243.06;5072829;28;20036;-72
2022/02/23 02:49:37;;;;;;;29.38;6.22;;;;;;;1.89;100.00;102244.28;5072497;28;20024;-72
2022/02/23 02:52:03;;;;;;;29.15;6.70;;;;;;;1.90;100.00;102243.47;5072371;28;20029;-71
2022/02/23 02:54:30;;;;;;;31.58;6.85;;;;;;;1.87;100.00;102241.56;5072282;28;20051;-71
2022/02/23 02:56:55;;;;;;;30.10;6.28;;;;;;;1.84;100.00;102253.53;5071167;28;20024;-71
2022/02/23 02:59:20;;;;;;;36.15;6.75;;;;;;;1.80;100.00;102242.00;5072039;28;20031;-71
2022/02/23 03:01:46;;;;;;;30.42;6.75;;;;;;;1.81;100.00;102241.22;5071989;28;20120;-71
2022/02/23 03:04:11;;;;;;;25.80;6.30;;;;;;;1.77;100.00;102240.94;5071072;28;20056;-72
2022/02/23 03:06:36;;;;;;;32.55;6.70;;;;;;;1.73;100.00;102240.75;5072497;28;20021;-71
2022/02/23 03:09:05;;;;;;;29.42;6.15;;;;;;;1.70;100.00;102247.44;5071399;28;20063;-71
2022/02/23 03:11:30;;;;;;;28.42;6.40;;;;;;;1.72;100.00;102251.06;5071206;28;20371;-71
2022/02/23 03:13:56;;;;;;;28.13;6.30;;;;;;;1.66;100.00;102246.38;5070957;28;20033;-71
2022/02/23 03:16:22;;;;;;;29.92;6.60;;;;;;;1.64;100.00;102253.19;5072146;28;20502;-71
2022/02/23 03:18:47;;;;;;;29.27;6.03;;;;;;;1.62;100.00;102253.91;5070713;28;20036;-71
2022/02/23 03:21:13;;;;;;;30.88;7.00;;;;;;;1.65;100.00;102255.00;5071856;28;20028;-72
2022/02/23 03:23:38;;;;;;;32.72;6.50;;;;;;;1.68;100.00;102260.38;5071616;28;20170;-71
2022/02/23 03:26:04;;;;;;;31.35;6.75;;;;;;;1.73;100.00;102269.41;5072055;28;20471;-72
2022/02/23 03:28:31;;;;;;;30.17;6.13;;;;;;;1.73;100.00;102269.41;5071748;28;20028;-72
2022/02/23 03:30:59;;;;;;;27.38;5.88;;;;;;;1.73;100.00;102272.03;5071789;28;20067;-71
2022/02/23 03:33:25;;;;;;;28.30;6.18;;;;;;;1.71;100.00;102275.34;5071262;28;20036;-71
2022/02/23 03:35:50;;;;;;;29.30;6.32;;;;;;;1.71;100.00;102276.22;5071768;28;20024;-71
2022/02/23 03:38:16;;;;;;;27.30;5.95;;;;;;;1.69;100.00;102283.06;5071307;28;20047;-71
2022/02/23 03:40:42;;;;;;;31.42;6.53;;;;;;;1.66;100.00;102281.94;5071826;28;20066;-72
2022/02/23 03:43:08;;;;;;;31.20;6.72;;;;;;;1.62;100.00;102283.47;5070710;28;20017;-72
2022/02/23 03:45:34;;;;;;;28.45;6.28;;;;;;;1.59;100.00;102270.25;5071783;28;20079;-71
2022/02/23 03:48:00;;;;;;;27.58;6.22;;;;;;;1.56;100.00;102275.28;5071044;28;20483;-71
2022/02/23 03:50:26;;;;;;;32.42;6.82;;;;;;;1.64;100.00;102284.47;5071889;28;20085;-71
2022/02/23 03:52:51;;;;;;;27.08;6.25;;;;;;;1.64;100.00;102284.47;5070989;28;20103;-72
2022/02/23 03:55:17;;;;;;;31.63;6.90;;;;;;;1.67;100.00;102282.03;5071011;28;20115;-71
2022/02/23 03:57:43;;;;;;;31.63;6.82;;;;;;;1.65;100.00;102288.00;5071522;28;20040;-71
2022/02/23 04:00:11;;;;;;;30.67;6.93;;;;;;;1.68;100.00;102294.28;5071077;28;20025;-72
2022/02/23 04:02:37;;;;;;;32.38;6.95;;;;;;;1.73;100.00;102295.50;5070696;28;20523;-71
2022/02/23 04:05:04;;;;;;;32.90;7.47;;;;;;;1.74;100.00;102302.50;5071354;28;20059;-71
2022/02/23 04:07:30;;;;;;;28.98;6.30;;;;;;;1.73;100.00;102305.00;5071291;28;20454;-72
2022/02/23 04:09:55;;;;;;;26.38;6.10;;;;;;;1.64;100.00;102304.44;5070668;28;20020;-71
2022/02/23 04:12:21;;;;;;;29.35;6.75;;;;;;;1.64;100.00;102310.53;5070700;28;20087;-71
2022/02/23 04:14:47;;;;;;;29.10;6.53;;;;;;;1.62;100.00;102312.16;5070530;28;20516;-71
2022/02/23 04:17:13;;;;;;;31.42;7.25;;;;;;;1.60;100.00;102318.94;5070888;28;20029;-71
2022/02/23 04:19:38;;;;;;;29.20;6.50;;;;;;;1.67;100.00;102317.66;5071188;28;20062;-72
2022/02/23 04:22:05;;;;;;;27.92;6.20;;;;;;;1.73;100.00;102326.78;5070437;28;20064;-72
2022/02/23 04:24:30;;;;;;;30.02;6.53;;;;;;;1.66;100.00;102328.88;5070832;28;20039;-71
2022/02/23 04:26:56;;;;;;;27.73;6.35;;;;;;;1.59;100.00;102326.69;5069206;28;20021;-71
2022/02/23 04:29:21;;;;;;;29.35;6.38;;;;;;;1.52;100.00;102325.41;5070208;28;20101;-72
2022/02/23 04:31:47;;;;;;;30.00;6.53;;;;;;;1.52;100.00;102331.50;5070420;28;20025;-72
2022/02/23 04:34:12;;;;;;;26.20;6.00;;;;;;;1.59;100.00;102337.09;5070637;28;20043;-72
2022/02/23 04:36:38;;;;;;;30.63;6.55;;;;;;;1.58;100.00;102333.59;5070908;28;20021;-71
2022/02/23 04:39:04;;;;;;;29.60;6.50;;;;;;;1.63;100.00;102337.44;5070751;28;20480;-71
2022/02/23 04:41:30;;;;;;;28.02;6.63;;;;;;;1.64;100.00;102335.72;5070271;28;20036;-71
2022/02/23 04:43:55;;;;;;;28.92;6.07;;;;;;;1.64;100.00;102346.13;5070743;28;20029;-71
2022/02/23 04:46:20;;;;;;;32.25;6.65;;;;;;;1.63;100.00;102337.44;5070557;28;20395;-71
2022/02/23 04:48:46;;;;;;;28.60;6.60;;;;;;;1.64;100.00;102347.03;5070117;28;20056;-72
2022/02/23 04:51:12;;;;;;;28.83;6.40;;;;;;;1.65;100.00;102348.84;5067273;28;20103;-72
2022/02/23 04:53:38;;;;;;;29.00;6.53;;;;;;;1.59;100.00;102343.25;5069364;28;20032;-71
2022/02/23 04:56:05;;;;;;;27.08;6.88;;;;;;;1.54;100.00;102350.78;5070179;28;20377;-72
2022/02/23 04:58:31;;;;;;;31.60;7.25;;;;;;;1.47;100.00;102356.38;5070127;28;20027;-71
2022/02/23 05:00:56;;;;;;;29.25;7.07;;;;;;;1.48;100.00;102350.34;5070294;28;20125;-71
2022/02/23 05:03:22;;;;;;;28.45;7.35;;;;;;;1.45;100.00;102349.25;5070290;28;20498;-71
2022/02/23 05:05:49;;;;;;;27.60;7.40;;;;;;;1.45;100.00;102344.03;5070385;28;20363;-71
2022/02/23 05:08:15;;;;;;;29.30;6.88;;;;;;;1.45;100.00;102349.25;5070397;28;20017;-71
2022/02/23 05:10:41;;;;;;;29.80;6.80;;;;;;;1.39;100.00;102350.66;5070364;28;20062;-70
2022/02/23 05:13:06;;;;;;;30.42;6.63;;;;;;;1.42;100.00;102349.94;5069215;28;20632;-71
2022/02/23 05:15:31;;;;;;;28.98;7.03;;;;;;;1.44;100.00;102350.94;5070268;28;20371;-71
2022/02/23 05:17:57;;;;;;;30.45;7.40;;;;;;;1.43;100.00;102351.78;5070146;28;20028;-71
2022/02/23 05:20:22;;;;;;;27.65;6.93;;;;;;;1.42;100.00;102360.38;5069998;28;20033;-71
2022/02/23 05:22:48;;;;;;;31.45;7.75;;;;;;;1.41;100.00;102360.28;5069383;28;20471;-71
2022/02/23 05:25:15;;;;;;;33.53;7.78;;;;;;;1.37;100.00;102362.69;5069895;28;20028;-71
2022/02/23 05:27:41;;;;;;;32.03;7.30;;;;;;;1.31;100.00;102357.06;5070125;28;20412;-71
2022/02/23 05:30:07;;;;;;;29.90;7.65;;;;;;;1.32;100.00;102363.19;5069756;28;20215;-71
2022/02/23 05:32:32;;;;;;;31.15;8.32;;;;;;;1.29;100.00;102365.59;5071572;28;20057;-71
2022/02/23 05:34:58;;;;;;;28.52;8.48;;;;;;;1.24;100.00;102364.38;5074032;28;20108;-71
2022/02/23 05:37:23;;;;;;;32.80;9.00;;;;;;;1.23;100.00;102360.88;5073825;28;20025;-72
2022/02/23 05:39:48;;;;;;;34.08;9.45;;;;;;;1.18;100.00;102351.81;5073628;28;21029;-71
2022/02/23 05:42:14;;;;;;;35.10;9.77;;;;;;;1.16;100.00;102367.34;5073280;28;20035;-71
2022/02/23 05:44:39;;;;;;;32.90;9.82;;;;;;;1.14;100.00;102371.56;5074147;28;20028;-72
2022/02/23 05:47:05;;;;;;;34.97;10.13;;;;;;;1.12;100.00;102367.97;5073478;28;20057;-72
2022/02/23 05:49:30;;;;;;;33.20;10.25;;;;;;;1.00;100.00;102368.03;5073825;28;20117;-71
2022/02/23 05:51:55;;;;;;;34.03;10.30;;;;;;;0.94;100.00;102369.34;5072456;28;20024;-72
2022/02/23 05:54:21;;;;;;;33.55;10.57;;;;;;;0.94;100.00;102369.34;5073687;28;20487;-72
2022/02/23 05:56:47;;;;;;;30.30;10.50;;;;;;;0.86;100.00;102367.13;5073528;28;20479;-71
2022/02/23 05:59:13;;;;;;;35.42;10.68;;;;;;;0.86;100.00;102369.72;5069981;28;20473;-72
2022/02/23 06:01:38;;;;;;;35.30;11.80;;;;;;;0.89;100.00;102371.63;5072904;28;20174;-71
2022/02/23 06:04:04;;;;;;;36.03;12.00;;;;;;;0.94;100.00;102375.44;5073512;28;20025;-72
2022/02/23 06:06:30;;;;;;;34.83;11.82;;;;;;;0.93;100.00;102376.22;5073285;28;20406;-71
2022/02/23 06:08:55;;;;;;;35.95;12.70;;;;;;;0.91;100.00;102377.84;5072084;28;20025;-74
2022/02/23 06:11:21;;;;;;;40.40;13.00;;;;;;;0.90;100.00;102377.72;5072877;28;20031;-73
2022/02/23 06:13:53;;;;;;;35.00;13.05;;;;;;;0.86;100.00;102371.44;5073408;28;20100;-72
2022/02/23 06:16:23;;;;;;;38.30;14.05;;;;;;;0.83;100.00;102376.41;5070781;28;20025;-71
2022/02/23 06:18:49;;;;;;;35.05;13.30;;;;;;;0.83;100.00;102382.53;5073227;28;20032;-71
2022/02/23 06:21:14;;;;;;;38.78;14.20;;;;;;;0.80;100.00;102391.81;5072909;28;20028;-72
2022/02/23 06:23:40;;;;;;;37.97;14.93;;;;;;;0.78;100.00;102388.22;5072368;28;20036;-75
2022/02/23 06:26:06;;;;;;;36.03;14.55;;;;;;;0.75;100.00;102390.59;5073152;28;20052;-76
2022/02/23 06:28:32;;;;;;;40.08;16.02;;;;;;;0.71;100.00;102383.38;5072620;28;20482;-75
2022/02/23 06:30:57;;;;;;;37.30;16.55;;;;;;;0.68;100.00;102392.81;5072965;28;20438;-74
2022/02/23 06:33:25;;;;;;;37.65;17.10;;;;;;;0.65;100.00;102389.94;5072632;28;20052;-77
2022/02/23 06:35:53;;;;;;;41.60;18.10;;;;;;;0.71;100.00;102391.19;5070714;28;20074;-72
2022/02/23 06:38:19;;;;;;;45.67;19.40;;;;;;;0.69;100.00;102394.59;5072963;28;20024;-76
2022/02/23 06:40:49;;;;;;;39.22;19.35;;;;;;;0.69;100.00;102399.78;5072246;28;20055;-76
2022/02/23 06:43:15;;;;;;;40.30;20.00;;;;;;;0.68;100.00;102403.22;5071158;28;20454;-75
2022/02/23 06:45:43;;;;;;;44.50;22.15;;;;;;;0.71;100.00;102404.22;5072338;28;20537;-75
2022/02/23 06:48:09;;;;;;;48.83;22.58;;;;;;;0.71;100.00;102402.50;5072820;28;20025;-75
2022/02/23 06:50:35;;;;;;;46.45;23.95;;;;;;;0.76;100.00;102401.13;5072371;28;20093;-77
2022/02/23 06:53:00;;;;;;;45.88;23.13;;;;;;;0.78;100.00;102402.13;5071909;28;20060;-76
2022/02/23 06:55:25;;;;;;;45.95;23.77;;;;;;;0.77;100.00;102402.94;5072031;28;20024;-76
2022/02/23 06:57:51;;;;;;;49.05;24.02;;;;;;;0.79;100.00;102414.34;5069617;28;20036;-74
2022/02/23 07:00:17;;;;;;;50.15;25.27;;;;;;;0.79;100.00;102411.75;5072063;28;20555;-76
2022/02/23 07:02:42;;;;;;;48.50;25.75;;;;;;;0.82;100.00;102404.16;5071738;28;20037;-76
2022/02/23 07:05:08;;;;;;;47.45;25.23;;;;;;;0.87;100.00;102407.06;5071497;28;20387;-75
2022/02/23 07:07:34;;;;;;;46.22;25.90;;;;;;;0.93;100.00;102409.19;5072269;28;20040;-76
2022/02/23 07:09:59;;;;;;;48.72;27.13;;;;;;;0.93;100.00;102411.78;5071994;28;20020;-75
2022/02/23 07:12:25;;;;;;;50.17;27.40;;;;;;;0.92;100.00;102413.50;5069689;28;20173;-75
2022/02/23 07:14:50;;;;;;;50.65;27.30;;;;;;;0.97;100.00;102416.41;5070692;28;20503;-75
2022/02/23 07:17:16;;;;;;;47.28;28.52;;;;;;;1.01;100.00;102415.84;5071755;28;20028;-76
2022/02/23 07:19:41;;;;;;;50.20;30.05;;;;;;;1.03;100.00;102422.97;5071901;28;20016;-76
2022/02/23 07:22:07;;;;;;;49.10;29.98;;;;;;;1.03;100.00;102417.75;5071266;28;20368;-75
2022/02/23 07:24:35;;;;;;;53.53;30.58;;;;;;;1.08;100.00;102420.66;5071820;28;20044;-76
2022/02/23 07:27:01;;;;;;;53.70;30.65;;;;;;;1.13;100.00;102428.78;5071020;28;20056;-75
2022/02/23 07:29:26;;;;;;;52.35;31.08;;;;;;;1.13;100.00;102426.19;5071475;28;20063;-75
2022/02/23 07:31:52;;;;;;;51.22;32.80;;;;;;;1.19;100.00;102430.13;5071285;28;20103;-74
2022/02/23 07:34:18;;;;;;;55.38;32.50;;;;;;;1.25;100.00;102440.03;5071744;28;20028;-74
2022/02/23 07:36:44;;;;;;;52.40;32.80;;;;;;;1.34;100.00;102438.06;5070213;28;20036;-74
2022/02/23 07:39:10;;;;;;;57.72;33.28;;;;;;;1.36;100.00;102441.66;5070313;28;20044;-73
2022/02/23 07:41:36;;;;;;;52.80;34.60;;;;;;;1.44;100.00;102438.66;5071269;28;20075;-77
2022/02/23 07:44:01;;;;;;;51.80;34.70;;;;;;;1.52;100.00;102438.38;5069435;28;20016;-73
2022/02/23 07:46:28;;;;;;;49.85;32.25;;;;;;;1.65;100.00;102434.88;5070314;28;20092;-74
2022/02/23 07:48:58;;;;;;;51.42;33.13;;;;;;;1.77;100.00;102440.00;5070127;28;20025;-76
2022/02/23 07:51:24;;;;;;;50.60;33.10;;;;;;;1.87;100.00;102442.41;5071129;28;20459;-75
2022/02/23 07:53:52;;;;;;;48.10;31.67;;;;;;;1.99;100.00;102444.00;5070565;28;20099;-75
2022/02/23 07:56:18;;;;;;;46.88;29.75;;;;;;;2.07;100.00;102451.53;5070762;28;20016;-73
2022/02/23 07:58:44;;;;;;;47.78;29.45;;;;;;;2.19;100.00;102453.13;5071140;28;20035;-75
2022/02/23 08:01:29;;;;;;;48.58;29.38;;;;;;;2.36;100.00;102454.19;5070372;28;20025;-76
2022/02/23 08:03:55;;;;;;;43.90;25.85;;;;;;;2.39;100.00;102455.31;5070541;28;20031;-76
2022/02/23 08:06:21;;;;;;;41.33;25.40;;;;;;;2.52;100.00;102456.97;5070016;28;20515;-75
2022/02/23 08:08:46;;;;;;;40.47;24.50;;;;;;;2.65;100.00;102461.28;5075479;28;20071;-75
2022/02/23 08:11:11;;;;;;;40.42;23.95;;;;;;;2.76;100.00;102464.53;5053236;28;20353;-76
2022/02/23 08:13:37;;;;;;;36.67;22.10;;;;;;;2.86;100.00;102453.84;5070772;28;20020;-75
2022/02/23 08:21:30;;;;;;;40.00;21.45;;;;;;;3.23;100.00;102452.56;5070152;28;20097;-71
2022/02/23 08:23:55;;;;;;;38.75;20.42;;;;;;;3.34;100.00;102459.34;5070167;28;20020;-72
2022/02/23 08:26:21;;;;;;;36.50;20.00;;;;;;;3.43;100.00;102458.97;5070742;28;20183;-72
2022/02/23 08:28:46;;;;;;;41.13;19.00;;;;;;;3.54;100.00;102459.59;5070577;28;20032;-72
2022/02/23 08:31:12;;;;;;;33.83;17.15;;;;;;;3.64;100.00;102446.25;5070602;28;20033;-72
2022/02/23 08:33:38;;;;;;;35.25;17.60;;;;;;;3.71;100.00;102451.03;5069910;28;20024;-72
2022/02/23 08:36:04;;;;;;;35.08;17.60;;;;;;;3.78;100.00;102453.19;5070272;28;20029;-71
2022/02/23 08:38:29;;;;;;;32.25;16.40;;;;;;;3.85;100.00;102454.44;5070473;28;20040;-72
2022/02/23 08:40:55;;;;;;;32.97;16.23;;;;;;;3.95;100.00;102453.28;5070483;28;20039;-71
2022/02/23 08:43:20;;;;;;;34.67;15.50;;;;;;;4.04;100.00;102456.41;5068681;28;20032;-73
2022/02/23 08:45:46;;;;;;;33.63;15.63;;;;;;;4.17;100.00;102455.38;5070378;28;20052;-72
2022/02/23 08:48:11;;;;;;;30.58;14.80;;;;;;;4.27;100.00;102456.81;5070498;28;20427;-71
2022/02/23 08:50:37;;;;;;;33.67;14.18;;;;;;;4.44;100.00;102460.34;5070373;28;20028;-71
2022/02/23 08:53:02;;;;;;;30.38;14.13;;;;;;;4.53;100.00;102453.91;5069821;28;20024;-72
2022/02/23 08:55:28;;;;;;;32.28;13.75;;;;;;;4.62;100.00;102460.47;5070402;28;20036;-72
2022/02/23 08:57:53;;;;;;;30.67;13.80;;;;;;;4.67;100.00;102457.25;5068851;28;20131;-72
2022/02/23 09:00:19;;;;;;;32.35;13.68;;;;;;;4.77;100.00;102456.03;5070336;28;20032;-71
2022/02/23 09:02:44;;;;;;;33.03;13.80;;;;;;;4.88;100.00;102460.13;5070008;28;20033;-72
2022/02/23 09:05:10;;;;;;;32.80;13.15;;;;;;;5.07;100.00;102455.88;5069644;28;20024;-72
2022/02/23 09:07:35;;;;;;;31.17;12.27;;;;;;;5.31;100.00;102463.22;5069607;28;20021;-71
2022/02/23 09:10:01;;;;;;;30.10;11.60;;;;;;;5.44;100.00;102473.50;5070084;28;20463;-72
2022/02/23 09:12:26;;;;;;;31.33;11.88;;;;;;;5.66;100.00;102472.00;5069622;28;20032;-71
2022/02/23 09:14:53;;;;;;;31.35;11.18;;;;;;;5.76;100.00;102471.63;5070146;28;20499;-71
2022/02/23 09:17:19;;;;;;;31.83;11.73;;;;;;;5.87;100.00;102465.19;5070158;28;20032;-71
2022/02/23 09:19:45;;;;;;;33.47;10.93;;;;;;;6.05;100.00;102469.56;5070452;28;20021;-72
2022/02/23 09:22:10;;;;;;;28.30;9.75;;;;;;;6.11;100.00;102469.88;5067786;28;20135;-72
2022/02/23 09:24:35;;;;;;;29.48;10.10;;;;;;;6.15;100.00;102468.31;5069805;28;20086;-71
2022/02/23 09:27:04;;;;;;;30.13;9.95;;;;;;;6.42;100.00;102466.06;5070028;28;20475;-73
2022/02/23 09:29:34;;;;;;;30.27;10.02;;;;;;;6.68;100.00;102458.50;5068840;28;20031;-71
2022/02/23 09:31:59;;;;;;;29.98;9.15;;;;;;;6.80;100.00;102457.34;5069569;28;20070;-71
2022/02/23 09:34:25;;;;;;;26.20;8.23;;;;;;;6.80;100.00;102453.81;5069769;28;20036;-71
2022/02/23 09:36:51;;;;;;;26.83;8.25;;;;;;;6.94;100.00;102465.84;5069645;28;20112;-71
2022/02/23 09:39:18;;;;;;;29.15;8.00;;;;;;;7.09;100.00;102451.59;5069950;28;20020;-71
2022/02/23 09:41:45;;;;;;;26.95;8.10;;;;;;;7.32;100.00;102449.97;5069395;28;20078;-71
2022/02/23 09:44:11;;;;;;;27.90;8.13;;;;;;;7.56;100.00;102438.69;5069859;28;20056;-71
2022/02/23 09:46:36;;;;;;;26.95;7.43;;;;;;;7.68;100.00;102441.84;5069575;28;20083;-71
2022/02/23 09:49:03;;;;;;;25.10;7.75;;;;;;;7.84;100.00;102446.00;5069940;28;20433;-71
2022/02/23 09:51:28;;;;;;;26.05;7.38;;;;;;;8.14;100.00;102446.34;5069862;28;20031;-70
2022/02/23 09:53:55;;;;;;;26.33;7.30;;;;;;;8.31;100.00;102435.56;5069316;28;20028;-71
2022/02/23 09:56:21;;;;;;;24.13;6.45;;;;;;;8.42;100.00;102435.97;5069925;28;20025;-71
2022/02/23 09:58:48;;;;;;;28.98;6.90;;;;;;;8.37;100.00;102446.34;5069689;28;20471;-71
2022/02/23 10:01:14;;;;;;;25.77;6.20;;;;;;;8.54;100.00;102453.19;5069564;28;20119;-70
2022/02/23 10:03:42;;;;;;;24.48;6.00;;;;;;;8.57;100.00;102451.53;5069286;28;20556;-71
2022/02/23 10:06:30;;;;;;;24.45;5.82;;;;;;;8.61;100.00;102440.28;5069593;28;20474;-70
2022/02/23 10:09:24;;;;;;;23.75;5.93;;;;;;;8.93;100.00;102441.47;5069463;28;20024;-71
2022/02/23 10:11:53;;;;;;;24.10;5.60;;;;;;;9.00;100.00;102439.94;5067345;28;20468;-70
2022/02/23 10:14:18;;;;;;;24.10;5.50;;;;;;;9.10;100.00;102436.81;5069410;28;20055;-71
2022/02/23 10:16:47;;;;;;;22.70;5.72;;;;;;;9.45;100.00;102433.59;5066434;28;20483;-71
2022/02/23 10:19:18;;;;;;;23.60;5.85;;;;;;;9.97;100.00;102437.06;5072202;28;20035;-70
2022/02/23 10:21:51;;;;;;;23.33;5.43;;;;;;;10.39;96.92;102426.97;5073550;28;20033;-71
2022/02/23 10:24:21;;;;;;;21.20;5.00;;;;;;;10.50;92.97;102431.69;5073302;28;20074;-71
2022/02/23 10:27:18;;;;;;;22.80;5.38;;;;;;;10.82;94.60;102438.81;5070042;28;20058;-72
2022/02/23 10:29:46;;;;;;;24.80;5.07;;;;;;;11.09;86.45;102432.50;5049817;28;20047;-71
2022/02/23 10:32:14;;;;;;;22.42;5.30;;;;;;;11.15;84.26;102447.66;5050243;28;20032;-72
2022/02/23 10:34:49;;;;;;;22.23;4.70;;;;;;;11.24;84.44;102442.63;5050549;28;20033;-71
2022/02/23 10:37:22;;;;;;;22.35;4.80;;;;;;;11.38;82.64;102439.44;5047175;28;20411;-72
2022/02/23 10:39:49;;;;;;;23.15;5.05;;;;;;;11.73;82.92;102435.03;5033264;28;20033;-72
2022/02/23 10:42:20;;;;;;;24.23;4.43;;;;;;;12.05;78.46;102434.06;5050065;28;20079;-72
2022/02/23 10:44:54;;;;;;;24.60;4.85;;;;;;;12.10;76.27;102435.97;5048768;28;20029;-72
2022/02/23 10:47:24;;;;;;;23.70;4.65;;;;;;;12.11;73.57;102429.78;5047010;28;20049;-72
2022/02/23 10:50:09;;;;;;;23.02;4.60;;;;;;;12.45;72.28;102443.84;5050217;28;20025;-72
2022/02/23 10:52:39;;;;;;;21.17;4.40;;;;;;;12.55;71.23;102424.59;5049601;28;20116;-72
2022/02/23 10:55:13;;;;;;;20.02;4.18;;;;;;;12.58;67.66;102421.09;5049630;28;20104;-72
2022/02/23 10:58:01;;;;;;;22.67;4.25;;;;;;;12.81;68.08;102428.66;5050407;28;20040;-71
2022/02/23 11:00:31;;;;;;;21.63;4.15;;;;;;;12.96;63.98;102415.69;5033535;28;20044;-72
2022/02/23 11:03:00;;;;;;;21.35;4.25;;;;;;;12.87;65.55;102440.28;5049666;28;20498;-73
2022/02/23 11:05:27;;;;;;;21.73;4.20;;;;;;;12.75;63.37;102416.16;5052561;28;20445;-72
2022/02/23 11:07:54;;;;;;;21.25;4.18;;;;;;;12.91;63.10;102428.84;5072571;28;20028;-72
2022/02/23 11:10:21;;;;;;;23.40;4.30;;;;;;;13.15;64.35;102419.59;5072486;28;20025;-72
2022/02/23 11:12:49;;;;;;;21.73;4.15;;;;;;;13.60;62.00;102417.72;5071585;28;20467;-73
2022/02/23 11:15:24;;;;;;;20.98;4.10;;;;;;;13.77;59.47;102415.34;5071800;28;20077;-72
2022/02/23 11:17:52;;;;;;;20.70;4.03;;;;;;;14.68;60.68;102413.09;5071106;28;20028;-72